createdAt,value
2022-12-04T00:00:12.968Z,0.00
2022-12-04T00:01:12.946Z,0.00
2022-12-04T00:02:12.932Z,0.00
2022-12-04T00:03:13.039Z,0.00
2022-12-04T00:04:12.932Z,0.00
2022-12-04T00:05:12.899Z,0.00
2022-12-04T00:06:12.808Z,0.00
2022-12-04T00:07:12.783Z,0.00
2022-12-04T00:08:12.853Z,0.00
2022-12-04T00:09:12.735Z,0.00
2022-12-04T00:10:12.706Z,0.00
2022-12-04T00:11:12.685Z,0.00
2022-12-04T00:12:12.661Z,0.00
2022-12-04T00:13:12.632Z,0.00
2022-12-04T00:14:12.602Z,0.00
2022-12-04T00:15:28.103Z,0.00
2022-12-04T00:16:12.595Z,0.00
2022-12-04T00:17:12.523Z,0.00
2022-12-04T00:18:12.498Z,0.00
2022-12-04T00:19:12.472Z,0.00
2022-12-04T00:20:12.466Z,0.00
2022-12-04T00:21:12.431Z,0.00
2022-12-04T00:22:12.392Z,0.00
2022-12-04T00:23:12.369Z,0.00
2022-12-04T00:24:12.342Z,0.00
2022-12-04T00:25:12.320Z,0.00
2022-12-04T00:26:12.309Z,0.00
2022-12-04T00:27:12.271Z,0.00
2022-12-04T00:28:12.239Z,0.00
2022-12-04T00:29:12.216Z,0.00
2022-12-04T00:30:12.218Z,0.00
2022-12-04T00:31:12.209Z,0.00
2022-12-04T00:32:12.130Z,0.00
2022-12-04T00:33:12.109Z,0.00
2022-12-04T00:34:12.083Z,0.00
2022-12-04T00:35:12.070Z,0.00
2022-12-04T00:36:12.048Z,0.00
2022-12-04T00:37:12.007Z,0.00
2022-12-04T00:38:11.987Z,0.00
2022-12-04T00:39:11.966Z,0.00
2022-12-04T00:40:11.922Z,0.00
2022-12-04T00:41:12.110Z,0.00
2022-12-04T00:42:11.874Z,0.00
2022-12-04T00:43:11.845Z,0.00
2022-12-04T00:44:11.823Z,0.00
2022-12-04T00:45:11.800Z,0.00
2022-12-04T00:46:11.863Z,0.00
2022-12-04T00:47:11.744Z,0.00
2022-12-04T00:48:11.719Z,0.00
2022-12-04T00:49:11.690Z,0.00
2022-12-04T00:50:11.663Z,0.00
2022-12-04T00:51:11.634Z,0.00
2022-12-04T00:52:11.639Z,0.00
2022-12-04T00:53:11.599Z,0.00
2022-12-04T00:54:11.556Z,0.00
2022-12-04T00:55:11.530Z,0.00
2022-12-04T00:56:11.503Z,0.00
2022-12-04T00:57:11.482Z,0.00
2022-12-04T00:58:11.762Z,0.00
2022-12-04T00:59:11.428Z,0.00
2022-12-04T01:00:11.398Z,0.00
2022-12-04T01:01:11.461Z,0.00
2022-12-04T01:02:11.346Z,0.00
2022-12-04T01:03:11.408Z,0.00
2022-12-04T01:04:11.299Z,0.00
2022-12-04T01:05:11.272Z,0.00
2022-12-04T01:06:11.243Z,0.00
2022-12-04T01:07:11.220Z,0.00
2022-12-04T01:08:17.306Z,0.00
2022-12-04T01:09:11.370Z,0.00
2022-12-04T01:10:11.143Z,0.00
2022-12-04T01:11:11.112Z,0.00
2022-12-04T01:12:13.935Z,0.00
2022-12-04T01:13:11.063Z,0.00
2022-12-04T01:14:11.034Z,0.00
2022-12-04T01:15:11.011Z,0.00
2022-12-04T01:16:11.055Z,0.00
2022-12-04T01:17:10.959Z,0.00
2022-12-04T01:18:10.937Z,0.00
2022-12-04T01:19:10.910Z,0.00
2022-12-04T01:20:10.887Z,0.00
2022-12-04T01:21:10.858Z,0.00
2022-12-04T01:22:10.828Z,0.00
2022-12-04T01:23:10.802Z,0.00
2022-12-04T01:24:10.772Z,0.00
2022-12-04T01:25:10.753Z,0.00
2022-12-04T01:26:10.719Z,0.00
2022-12-04T01:27:10.702Z,0.00
2022-12-04T01:28:10.701Z,0.00
2022-12-04T01:29:10.648Z,0.00
2022-12-04T01:30:10.615Z,0.00
2022-12-04T01:31:10.688Z,0.00
2022-12-04T01:32:10.618Z,0.00
2022-12-04T01:33:10.543Z,0.00
2022-12-04T01:34:10.513Z,0.00
2022-12-04T01:35:10.693Z,0.00
2022-12-04T01:36:10.462Z,0.00
2022-12-04T01:37:10.434Z,0.00
2022-12-04T01:38:10.417Z,0.00
2022-12-04T01:39:10.388Z,0.00
2022-12-04T01:40:10.356Z,0.00
2022-12-04T01:41:10.331Z,0.00
2022-12-04T01:42:10.306Z,0.00
2022-12-04T01:43:10.280Z,0.00
2022-12-04T01:44:10.280Z,0.00
2022-12-04T01:45:10.230Z,0.00
2022-12-04T01:46:10.541Z,0.00
2022-12-04T01:47:10.174Z,0.00
2022-12-04T01:48:10.145Z,0.00
2022-12-04T01:49:10.123Z,0.00
2022-12-04T01:50:10.104Z,0.00
2022-12-04T01:51:10.075Z,0.00
2022-12-04T01:52:10.043Z,0.00
2022-12-04T01:53:10.019Z,0.00
2022-12-04T01:54:09.989Z,0.00
2022-12-04T01:55:09.966Z,0.00
2022-12-04T01:56:09.937Z,0.00
2022-12-04T01:57:09.915Z,0.00
2022-12-04T01:58:09.886Z,0.00
2022-12-04T01:59:09.860Z,0.00
2022-12-04T02:00:09.859Z,0.00
2022-12-04T02:01:09.914Z,0.00
2022-12-04T02:02:09.982Z,0.00
2022-12-04T02:03:09.847Z,0.00
2022-12-04T02:04:09.732Z,0.00
2022-12-04T02:05:09.703Z,0.00
2022-12-04T02:06:09.686Z,0.00
2022-12-04T02:07:09.683Z,0.00
2022-12-04T02:08:09.712Z,0.00
2022-12-04T02:09:09.601Z,0.00
2022-12-04T02:10:09.579Z,0.00
2022-12-04T02:11:09.550Z,0.00
2022-12-04T02:12:09.521Z,0.00
2022-12-04T02:13:09.499Z,0.00
2022-12-04T02:14:09.469Z,0.00
2022-12-04T02:15:09.444Z,0.00
2022-12-04T02:16:09.506Z,0.00
2022-12-04T02:17:09.399Z,0.00
2022-12-04T02:18:09.368Z,0.00
2022-12-04T02:19:09.340Z,0.00
2022-12-04T02:20:09.310Z,0.00
2022-12-04T02:21:09.289Z,0.00
2022-12-04T02:22:09.259Z,0.00
2022-12-04T02:23:09.567Z,0.00
2022-12-04T02:24:09.206Z,0.00
2022-12-04T02:25:09.188Z,0.00
2022-12-04T02:26:09.156Z,0.00
2022-12-04T02:27:09.131Z,0.00
2022-12-04T02:28:09.104Z,0.00
2022-12-04T02:29:09.082Z,0.00
2022-12-04T02:30:09.069Z,0.00
2022-12-04T02:31:09.119Z,0.00
2022-12-04T02:32:09.022Z,0.00
2022-12-04T02:33:08.977Z,0.00
2022-12-04T02:34:08.954Z,0.00
2022-12-04T02:35:08.926Z,0.00
2022-12-04T02:36:08.892Z,0.00
2022-12-04T02:37:08.875Z,0.00
2022-12-04T02:38:08.843Z,0.00
2022-12-04T02:39:08.819Z,0.00
2022-12-04T02:40:08.789Z,0.00
2022-12-04T02:41:08.770Z,0.00
2022-12-04T02:42:08.741Z,0.00
2022-12-04T02:43:08.715Z,0.00
2022-12-04T02:44:08.691Z,0.00
2022-12-04T02:45:08.662Z,0.00
2022-12-04T02:46:08.725Z,0.00
2022-12-04T02:47:08.611Z,0.00
2022-12-04T02:48:08.611Z,0.00
2022-12-04T02:49:08.558Z,0.00
2022-12-04T02:50:08.534Z,0.00
2022-12-04T02:51:08.504Z,0.00
2022-12-04T02:52:08.477Z,0.00
2022-12-04T02:53:08.458Z,0.00
2022-12-04T02:54:08.459Z,0.00
2022-12-04T02:55:08.985Z,0.00
2022-12-04T02:56:08.376Z,0.00
2022-12-04T02:57:08.354Z,0.00
2022-12-04T02:58:08.322Z,0.00
2022-12-04T02:59:08.296Z,0.00
2022-12-04T03:00:08.273Z,0.00
2022-12-04T03:01:08.339Z,0.00
2022-12-04T03:02:08.268Z,0.00
2022-12-04T03:03:08.192Z,0.00
2022-12-04T03:04:08.194Z,0.00
2022-12-04T03:05:08.144Z,0.00
2022-12-04T03:06:08.116Z,0.00
2022-12-04T03:07:08.085Z,0.00
2022-12-04T03:08:08.122Z,0.00
2022-12-04T03:09:08.040Z,0.00
2022-12-04T03:10:08.039Z,0.00
2022-12-04T03:11:07.986Z,0.00
2022-12-04T03:12:07.954Z,0.00
2022-12-04T03:13:07.935Z,0.00
2022-12-04T03:14:07.906Z,0.00
2022-12-04T03:15:07.876Z,0.00
2022-12-04T03:16:07.850Z,0.00
2022-12-04T03:17:07.894Z,0.00
2022-12-04T03:18:07.800Z,0.00
2022-12-04T03:19:07.772Z,0.00
2022-12-04T03:20:07.767Z,0.00
2022-12-04T03:21:08.054Z,0.00
2022-12-04T03:22:07.690Z,0.00
2022-12-04T03:23:07.669Z,0.00
2022-12-04T03:24:07.640Z,0.00
2022-12-04T03:25:07.621Z,0.00
2022-12-04T03:26:07.589Z,0.00
2022-12-04T03:27:07.564Z,0.00
2022-12-04T03:28:07.532Z,0.00
2022-12-04T03:29:07.509Z,0.00
2022-12-04T03:30:07.480Z,0.00
2022-12-04T03:31:07.507Z,0.00
2022-12-04T03:32:07.434Z,0.00
2022-12-04T03:33:07.404Z,0.00
2022-12-04T03:34:07.376Z,0.00
2022-12-04T03:35:07.351Z,0.00
2022-12-04T03:36:07.345Z,0.00
2022-12-04T03:37:07.301Z,0.00
2022-12-04T03:38:07.296Z,0.00
2022-12-04T03:39:07.245Z,0.00
2022-12-04T03:40:07.262Z,0.00
2022-12-04T03:41:07.191Z,0.00
2022-12-04T03:42:07.168Z,0.00
2022-12-04T03:43:07.142Z,0.00
2022-12-04T03:44:07.115Z,0.00
2022-12-04T03:45:07.092Z,0.00
2022-12-04T03:46:07.129Z,0.00
2022-12-04T03:47:07.039Z,0.00
2022-12-04T03:48:07.013Z,0.00
2022-12-04T03:49:07.020Z,0.00
2022-12-04T03:50:06.958Z,0.00
2022-12-04T03:51:06.935Z,0.00
2022-12-04T03:52:06.925Z,0.00
2022-12-04T03:53:06.881Z,0.00
2022-12-04T03:54:06.851Z,0.00
2022-12-04T03:55:06.830Z,0.00
2022-12-04T03:56:06.798Z,0.00
2022-12-04T03:57:06.776Z,0.00
2022-12-04T03:58:06.747Z,0.00
2022-12-04T03:59:06.723Z,0.00
2022-12-04T04:00:07.300Z,0.00
2022-12-04T04:01:06.767Z,0.00
2022-12-04T04:02:06.812Z,0.00
2022-12-04T04:03:06.688Z,0.00
2022-12-04T04:04:06.600Z,0.00
2022-12-04T04:05:06.571Z,0.00
2022-12-04T04:06:06.537Z,0.00
2022-12-04T04:07:06.838Z,0.00
2022-12-04T04:08:06.579Z,0.00
2022-12-04T04:09:06.461Z,0.00
2022-12-04T04:10:06.436Z,0.00
2022-12-04T04:11:06.407Z,0.00
2022-12-04T04:12:06.385Z,0.00
2022-12-04T04:13:06.356Z,0.00
2022-12-04T04:14:06.327Z,0.00
2022-12-04T04:15:06.300Z,0.00
2022-12-04T04:16:06.309Z,0.00
2022-12-04T04:17:06.250Z,0.00
2022-12-04T04:18:06.222Z,0.00
2022-12-04T04:19:06.201Z,0.00
2022-12-04T04:20:06.168Z,0.00
2022-12-04T04:21:06.145Z,0.00
2022-12-04T04:22:06.114Z,0.00
2022-12-04T04:23:06.090Z,0.00
2022-12-04T04:24:06.094Z,0.00
2022-12-04T04:25:06.040Z,0.00
2022-12-04T04:26:06.012Z,0.00
2022-12-04T04:27:05.984Z,0.00
2022-12-04T04:28:05.962Z,0.00
2022-12-04T04:29:05.932Z,0.00
2022-12-04T04:30:05.912Z,0.00
2022-12-04T04:31:05.933Z,0.00
2022-12-04T04:32:05.852Z,0.00
2022-12-04T04:33:05.829Z,0.00
2022-12-04T04:34:05.803Z,0.00
2022-12-04T04:35:05.780Z,0.00
2022-12-04T04:36:05.754Z,0.00
2022-12-04T04:37:05.735Z,0.00
2022-12-04T04:38:05.698Z,0.00
2022-12-04T04:39:05.673Z,0.00
2022-12-04T04:40:05.669Z,0.00
2022-12-04T04:41:05.623Z,0.00
2022-12-04T04:42:05.591Z,0.00
2022-12-04T04:43:05.568Z,0.00
2022-12-04T04:44:05.543Z,0.00
2022-12-04T04:45:05.515Z,0.00
2022-12-04T04:46:05.519Z,0.00
2022-12-04T04:47:05.467Z,0.00
2022-12-04T04:48:05.434Z,0.00
2022-12-04T04:49:05.410Z,0.00
2022-12-04T04:50:05.381Z,0.00
2022-12-04T04:51:05.361Z,0.00
2022-12-04T04:52:05.332Z,0.00
2022-12-04T04:53:05.306Z,0.00
2022-12-04T04:54:05.279Z,0.00
2022-12-04T04:55:05.258Z,0.00
2022-12-04T04:56:05.249Z,0.00
2022-12-04T04:57:05.207Z,0.00
2022-12-04T04:58:05.909Z,0.00
2022-12-04T04:59:05.151Z,0.00
2022-12-04T05:00:05.118Z,0.00
2022-12-04T05:01:05.096Z,0.00
2022-12-04T05:02:05.176Z,0.00
2022-12-04T05:03:05.121Z,0.00
2022-12-04T05:04:05.016Z,0.00
2022-12-04T05:05:04.992Z,0.00
2022-12-04T05:06:04.964Z,0.00
2022-12-04T05:07:04.941Z,0.00
2022-12-04T05:08:04.954Z,0.00
2022-12-04T05:09:04.891Z,0.00
2022-12-04T05:10:04.856Z,0.00
2022-12-04T05:11:04.834Z,0.00
2022-12-04T05:12:04.833Z,0.00
2022-12-04T05:13:04.784Z,0.00
2022-12-04T05:14:04.964Z,0.00
2022-12-04T05:15:04.732Z,0.00
2022-12-04T05:16:04.763Z,0.00
2022-12-04T05:17:09.283Z,0.00
2022-12-04T05:18:04.653Z,0.00
2022-12-04T05:19:04.628Z,0.00
2022-12-04T05:20:04.611Z,0.00
2022-12-04T05:21:04.577Z,0.00
2022-12-04T05:22:04.544Z,0.00
2022-12-04T05:23:04.519Z,0.00
2022-12-04T05:24:04.491Z,0.00
2022-12-04T05:25:04.472Z,0.00
2022-12-04T05:26:04.439Z,0.00
2022-12-04T05:27:04.416Z,0.00
2022-12-04T05:28:04.411Z,0.00
2022-12-04T05:29:04.366Z,0.00
2022-12-04T05:30:04.335Z,0.00
2022-12-04T05:31:04.386Z,0.00
2022-12-04T05:32:04.283Z,0.00
2022-12-04T05:33:04.260Z,0.00
2022-12-04T05:34:04.230Z,0.00
2022-12-04T05:35:10.604Z,0.00
2022-12-04T05:36:04.183Z,0.00
2022-12-04T05:37:04.159Z,0.00
2022-12-04T05:38:04.128Z,0.00
2022-12-04T05:39:04.102Z,0.00
2022-12-04T05:40:04.072Z,0.00
2022-12-04T05:41:04.381Z,0.00
2022-12-04T05:42:04.024Z,0.00
2022-12-04T05:43:03.996Z,0.00
2022-12-04T05:44:03.994Z,0.00
2022-12-04T05:45:03.946Z,0.00
2022-12-04T05:46:03.916Z,0.00
2022-12-04T05:47:03.948Z,0.00
2022-12-04T05:48:03.864Z,0.00
2022-12-04T05:49:03.842Z,0.00
2022-12-04T05:50:03.829Z,0.00
2022-12-04T05:51:03.789Z,0.00
2022-12-04T05:52:03.762Z,0.00
2022-12-04T05:53:03.735Z,0.00
2022-12-04T05:54:03.711Z,0.00
2022-12-04T05:55:03.683Z,0.00
2022-12-04T05:56:03.659Z,0.00
2022-12-04T05:57:03.644Z,0.00
2022-12-04T05:58:03.606Z,0.00
2022-12-04T05:59:03.577Z,0.00
2022-12-04T06:00:03.586Z,0.00
2022-12-04T06:01:03.527Z,0.00
2022-12-04T06:02:03.625Z,0.00
2022-12-04T06:03:03.569Z,0.00
2022-12-04T06:04:03.445Z,0.00
2022-12-04T06:05:03.423Z,0.00
2022-12-04T06:06:03.394Z,0.00
2022-12-04T06:07:03.704Z,0.00
2022-12-04T06:08:03.447Z,0.00
2022-12-04T06:09:03.320Z,0.00
2022-12-04T06:10:03.297Z,0.00
2022-12-04T06:11:03.265Z,0.00
2022-12-04T06:12:03.237Z,0.00
2022-12-04T06:13:03.217Z,0.00
2022-12-04T06:14:03.193Z,0.00
2022-12-04T06:15:03.162Z,0.00
2022-12-04T06:16:03.208Z,0.00
2022-12-04T06:17:03.112Z,0.00
2022-12-04T06:18:03.086Z,0.00
2022-12-04T06:19:03.058Z,0.00
2022-12-04T06:20:07.947Z,0.00
2022-12-04T06:21:03.070Z,0.00
2022-12-04T06:22:02.975Z,0.00
2022-12-04T06:23:02.951Z,0.00
2022-12-04T06:24:02.924Z,0.00
2022-12-04T06:25:02.902Z,0.00
2022-12-04T06:26:06.929Z,0.00
2022-12-04T06:28:03.429Z,0.00
2022-12-04T06:29:02.795Z,0.00
2022-12-04T06:30:02.766Z,0.00
2022-12-04T06:31:02.744Z,0.00
2022-12-04T06:32:02.854Z,0.00
2022-12-04T06:33:02.694Z,0.00
2022-12-04T06:34:02.662Z,0.00
2022-12-04T06:35:02.638Z,0.00
2022-12-04T06:36:02.610Z,0.00
2022-12-04T06:37:02.588Z,0.00
2022-12-04T06:38:02.557Z,0.00
2022-12-04T06:39:02.534Z,0.00
2022-12-04T06:40:02.506Z,0.00
2022-12-04T06:41:02.483Z,0.00
2022-12-04T06:42:02.455Z,0.00
2022-12-04T06:43:02.436Z,0.00
2022-12-04T06:44:02.401Z,0.00
2022-12-04T06:45:02.389Z,0.00
2022-12-04T06:46:02.435Z,0.00
2022-12-04T06:47:02.324Z,0.00
2022-12-04T06:48:02.317Z,0.00
2022-12-04T06:49:02.278Z,0.00
2022-12-04T06:50:02.252Z,0.00
2022-12-04T06:51:02.221Z,0.00
2022-12-04T06:52:02.192Z,0.00
2022-12-04T06:53:07.971Z,0.00
2022-12-04T06:54:02.462Z,0.00
2022-12-04T06:55:02.116Z,0.00
2022-12-04T06:56:02.087Z,0.00
2022-12-04T06:57:02.063Z,0.00
2022-12-04T06:58:02.031Z,0.00
2022-12-04T06:59:02.010Z,0.00
2022-12-04T07:00:02.602Z,4.00
2022-12-04T07:01:01.983Z,4.00
2022-12-04T07:02:01.990Z,4.00
2022-12-04T07:03:01.905Z,0.00
2022-12-04T07:04:01.908Z,0.00
2022-12-04T07:05:01.856Z,4.00
2022-12-04T07:06:01.825Z,4.00
2022-12-04T07:07:01.802Z,4.00
2022-12-04T07:08:01.850Z,8.00
2022-12-04T07:09:01.765Z,4.00
2022-12-04T07:10:01.719Z,4.00
2022-12-04T07:11:01.697Z,4.00
2022-12-04T07:12:01.671Z,8.00
2022-12-04T07:13:01.641Z,8.00
2022-12-04T07:14:01.615Z,4.00
2022-12-04T07:15:01.590Z,8.00
2022-12-04T07:16:01.616Z,8.00
2022-12-04T07:17:01.613Z,8.00
2022-12-04T07:18:01.509Z,12.00
2022-12-04T07:19:01.487Z,12.00
2022-12-04T07:20:01.487Z,12.00
2022-12-04T07:21:01.439Z,16.00
2022-12-04T07:22:01.407Z,12.00
2022-12-04T07:23:06.889Z,16.00
2022-12-04T07:24:01.353Z,20.00
2022-12-04T07:25:01.327Z,20.00
2022-12-04T07:26:01.304Z,24.00
2022-12-04T07:27:01.273Z,24.00
2022-12-04T07:28:01.252Z,24.00
2022-12-04T07:29:01.227Z,24.00
2022-12-04T07:30:01.199Z,28.00
2022-12-04T07:31:01.170Z,24.00
2022-12-04T07:32:01.196Z,28.00
2022-12-04T07:33:01.118Z,28.00
2022-12-04T07:34:01.092Z,32.00
2022-12-04T07:35:01.066Z,32.00
2022-12-04T07:36:01.063Z,36.00
2022-12-04T07:37:01.015Z,36.00
2022-12-04T07:38:00.986Z,36.00
2022-12-04T07:39:00.965Z,40.00
2022-12-04T07:40:00.944Z,40.00
2022-12-04T07:41:00.907Z,44.00
2022-12-04T07:42:00.885Z,40.00
2022-12-04T07:43:00.859Z,44.00
2022-12-04T07:44:00.831Z,44.00
2022-12-04T07:45:00.807Z,44.00
2022-12-04T07:46:00.921Z,44.00
2022-12-04T07:47:00.755Z,48.00
2022-12-04T07:48:00.727Z,56.00
2022-12-04T07:49:00.702Z,60.00
2022-12-04T07:50:00.676Z,56.00
2022-12-04T07:51:00.653Z,64.00
2022-12-04T07:52:00.669Z,68.00
2022-12-04T07:53:00.602Z,72.00
2022-12-04T07:54:03.713Z,68.00
2022-12-04T07:55:00.546Z,72.00
2022-12-04T07:56:00.518Z,76.00
2022-12-04T07:57:00.494Z,84.00
2022-12-04T07:58:00.466Z,84.00
2022-12-04T07:59:00.486Z,92.00
2022-12-04T08:00:00.421Z,96.00
2022-12-04T08:01:00.476Z,104.00
2022-12-04T08:02:00.446Z,104.00
2022-12-04T08:03:00.336Z,100.00
2022-12-04T08:04:00.483Z,104.00
2022-12-04T08:05:00.418Z,100.00
2022-12-04T08:06:00.508Z,104.00
2022-12-04T08:07:00.236Z,108.00
2022-12-04T08:08:00.348Z,108.00
2022-12-04T08:09:03.629Z,108.00
2022-12-04T08:10:00.166Z,108.00
2022-12-04T08:11:00.129Z,104.00
2022-12-04T08:12:00.103Z,108.00
2022-12-04T08:13:00.078Z,104.00
2022-12-04T08:14:00.055Z,100.00
2022-12-04T08:15:00.047Z,108.00
2022-12-04T08:16:00.000Z,104.00
2022-12-04T08:17:00.072Z,104.00
2022-12-04T08:17:59.944Z,108.00
2022-12-04T08:18:59.928Z,116.00
2022-12-04T08:19:59.895Z,120.00
2022-12-04T08:20:59.871Z,132.00
2022-12-04T08:21:59.845Z,140.00
2022-12-04T08:22:59.822Z,136.00
2022-12-04T08:23:59.818Z,148.00
2022-12-04T08:24:59.775Z,148.00
2022-12-04T08:25:59.737Z,148.00
2022-12-04T08:26:59.713Z,160.00
2022-12-04T08:27:59.688Z,160.00
2022-12-04T08:28:59.664Z,168.00
2022-12-04T08:29:59.632Z,176.00
2022-12-04T08:30:59.669Z,164.00
2022-12-04T08:31:59.583Z,180.00
2022-12-04T08:32:59.562Z,180.00
2022-12-04T08:33:59.528Z,160.00
2022-12-04T08:34:59.504Z,176.00
2022-12-04T08:35:59.480Z,188.00
2022-12-04T08:36:59.453Z,196.00
2022-12-04T08:37:59.430Z,192.00
2022-12-04T08:38:59.406Z,188.00
2022-12-04T08:39:59.402Z,188.00
2022-12-04T08:40:59.351Z,188.00
2022-12-04T08:41:59.333Z,196.00
2022-12-04T08:42:59.293Z,196.00
2022-12-04T08:43:59.268Z,184.00
2022-12-04T08:44:59.245Z,196.00
2022-12-04T08:45:59.311Z,204.00
2022-12-04T08:46:59.200Z,200.00
2022-12-04T08:47:59.171Z,212.00
2022-12-04T08:48:59.150Z,216.00
2022-12-04T08:49:59.117Z,224.00
2022-12-04T08:50:59.089Z,216.00
2022-12-04T08:51:59.061Z,196.00
2022-12-04T08:52:59.040Z,228.00
2022-12-04T08:53:59.005Z,256.00
2022-12-04T08:54:58.989Z,252.00
2022-12-04T08:55:58.982Z,252.00
2022-12-04T08:57:58.909Z,268.00
2022-12-04T08:58:58.877Z,276.00
2022-12-04T08:59:59.001Z,280.00
2022-12-04T09:00:58.892Z,284.00
2022-12-04T09:01:58.872Z,284.00
2022-12-04T09:02:58.778Z,280.00
2022-12-04T09:03:58.786Z,268.00
2022-12-04T09:04:58.791Z,264.00
2022-12-04T09:05:58.704Z,256.00
2022-12-04T09:06:58.680Z,260.00
2022-12-04T09:07:58.725Z,260.00
2022-12-04T09:08:58.627Z,300.00
2022-12-04T09:09:58.954Z,312.00
2022-12-04T09:10:58.568Z,296.00
2022-12-04T09:11:58.575Z,304.00
2022-12-04T09:12:58.517Z,292.00
2022-12-04T09:13:58.492Z,296.00
2022-12-04T09:14:58.469Z,292.00
2022-12-04T09:15:58.489Z,280.00
2022-12-04T09:16:58.411Z,304.00
2022-12-04T09:17:58.390Z,308.00
2022-12-04T09:18:58.361Z,312.00
2022-12-04T09:20:01.190Z,308.00
2022-12-04T09:20:58.309Z,316.00
2022-12-04T09:21:58.288Z,304.00
2022-12-04T09:23:05.583Z,292.00
2022-12-04T09:23:58.234Z,304.00
2022-12-04T09:24:58.218Z,316.00
2022-12-04T09:25:58.188Z,316.00
2022-12-04T09:26:58.167Z,300.00
2022-12-04T09:27:58.154Z,304.00
2022-12-04T09:28:58.101Z,292.00
2022-12-04T09:29:58.450Z,296.00
2022-12-04T09:30:58.147Z,300.00
2022-12-04T09:31:58.029Z,296.00
2022-12-04T09:32:57.999Z,324.00
2022-12-04T09:33:57.976Z,328.00
2022-12-04T09:34:57.951Z,324.00
2022-12-04T09:35:57.920Z,324.00
2022-12-04T09:36:57.898Z,320.00
2022-12-04T09:37:57.869Z,312.00
2022-12-04T09:38:57.842Z,316.00
2022-12-04T09:39:58.019Z,332.00
2022-12-04T09:40:57.791Z,340.00
2022-12-04T09:41:57.788Z,340.00
2022-12-04T09:42:58.347Z,344.00
2022-12-04T09:43:57.751Z,348.00
2022-12-04T09:44:57.694Z,356.00
2022-12-04T09:45:57.742Z,352.00
2022-12-04T09:46:57.696Z,372.00
2022-12-04T09:47:57.612Z,376.00
2022-12-04T09:48:57.589Z,376.00
2022-12-04T09:49:57.968Z,388.00
2022-12-04T09:50:57.534Z,416.00
2022-12-04T09:51:57.514Z,420.00
2022-12-04T09:52:57.486Z,420.00
2022-12-04T09:53:57.460Z,420.00
2022-12-04T09:54:57.430Z,428.00
2022-12-04T09:55:57.411Z,440.00
2022-12-04T09:56:57.383Z,432.00
2022-12-04T09:58:01.833Z,432.00
2022-12-04T09:58:57.335Z,432.00
2022-12-04T09:59:57.614Z,444.00
2022-12-04T10:00:57.277Z,448.00
2022-12-04T10:01:57.258Z,468.00
2022-12-04T10:02:57.325Z,488.00
2022-12-04T10:04:02.565Z,472.00
2022-12-04T10:04:57.170Z,484.00
2022-12-04T10:05:57.148Z,500.00
2022-12-04T10:06:57.127Z,536.00
2022-12-04T10:07:57.263Z,548.00
2022-12-04T10:08:57.079Z,568.00
2022-12-04T10:09:57.364Z,556.00
2022-12-04T10:10:57.047Z,552.00
2022-12-04T10:11:57.008Z,572.00
2022-12-04T10:12:56.967Z,568.00
2022-12-04T10:13:56.958Z,560.00
2022-12-04T10:14:56.913Z,572.00
2022-12-04T10:15:56.990Z,556.00
2022-12-04T10:16:56.862Z,560.00
2022-12-04T10:17:56.841Z,580.00
2022-12-04T10:18:56.815Z,596.00
2022-12-04T10:19:57.134Z,576.00
2022-12-04T10:20:56.771Z,552.00
2022-12-04T10:21:56.739Z,540.00
2022-12-04T10:22:56.709Z,540.00
2022-12-04T10:23:56.681Z,540.00
2022-12-04T10:24:56.658Z,552.00
2022-12-04T10:25:56.655Z,552.00
2022-12-04T10:26:56.621Z,552.00
2022-12-04T10:27:56.591Z,572.00
2022-12-04T10:28:56.567Z,576.00
2022-12-04T10:29:56.845Z,576.00
2022-12-04T10:30:56.532Z,572.00
2022-12-04T10:31:56.512Z,572.00
2022-12-04T10:32:56.458Z,592.00
2022-12-04T10:33:56.435Z,596.00
2022-12-04T10:34:56.411Z,580.00
2022-12-04T10:35:56.382Z,568.00
2022-12-04T10:36:56.347Z,588.00
2022-12-04T10:37:56.330Z,572.00
2022-12-04T10:38:56.303Z,556.00
2022-12-04T10:39:56.529Z,524.00
2022-12-04T10:40:56.251Z,512.00
2022-12-04T10:41:56.223Z,512.00
2022-12-04T10:42:56.197Z,512.00
2022-12-04T10:43:56.172Z,512.00
2022-12-04T10:44:56.144Z,508.00
2022-12-04T10:45:56.120Z,524.00
2022-12-04T10:46:56.185Z,532.00
2022-12-04T10:47:56.097Z,548.00
2022-12-04T10:48:56.043Z,572.00
2022-12-04T10:49:56.319Z,560.00
2022-12-04T10:50:55.994Z,560.00
2022-12-04T10:51:55.971Z,540.00
2022-12-04T10:52:55.945Z,540.00
2022-12-04T10:53:55.933Z,536.00
2022-12-04T10:54:55.889Z,524.00
2022-12-04T10:55:55.864Z,484.00
2022-12-04T10:56:55.839Z,504.00
2022-12-04T10:57:55.826Z,492.00
2022-12-04T10:58:56.005Z,476.00
2022-12-04T10:59:56.235Z,512.00
2022-12-04T11:00:55.733Z,480.00
2022-12-04T11:01:55.746Z,452.00
2022-12-04T11:02:55.766Z,464.00
2022-12-04T11:03:55.688Z,480.00
2022-12-04T11:04:55.630Z,492.00
2022-12-04T11:05:55.614Z,500.00
2022-12-04T11:06:55.584Z,496.00
2022-12-04T11:07:55.643Z,524.00
2022-12-04T11:08:55.526Z,548.00
2022-12-04T11:10:55.479Z,580.00
2022-12-04T11:11:55.453Z,632.00
2022-12-04T11:12:55.428Z,636.00
2022-12-04T11:13:55.401Z,632.00
2022-12-04T11:14:55.375Z,656.00
2022-12-04T11:15:55.391Z,612.00
2022-12-04T11:16:55.321Z,592.00
2022-12-04T11:17:55.302Z,576.00
2022-12-04T11:18:55.268Z,616.00
2022-12-04T11:19:55.508Z,640.00
2022-12-04T11:20:55.221Z,628.00
2022-12-04T11:21:55.195Z,644.00
2022-12-04T11:22:55.166Z,664.00
2022-12-04T11:23:55.146Z,640.00
2022-12-04T11:24:55.120Z,628.00
2022-12-04T11:25:58.225Z,608.00
2022-12-04T11:26:55.070Z,636.00
2022-12-04T11:27:55.038Z,636.00
2022-12-04T11:28:55.015Z,628.00
2022-12-04T11:29:55.400Z,648.00
2022-12-04T11:30:55.123Z,636.00
2022-12-04T11:31:55.090Z,668.00
2022-12-04T11:32:54.915Z,652.00
2022-12-04T11:33:54.886Z,664.00
2022-12-04T11:34:54.873Z,664.00
2022-12-04T11:35:54.869Z,656.00
2022-12-04T11:36:54.822Z,660.00
2022-12-04T11:37:54.787Z,660.00
2022-12-04T11:38:54.756Z,624.00
2022-12-04T11:39:55.082Z,656.00
2022-12-04T11:40:55.040Z,636.00
2022-12-04T11:41:54.685Z,636.00
2022-12-04T11:42:54.657Z,612.00
2022-12-04T11:43:59.553Z,636.00
2022-12-04T11:44:54.605Z,632.00
2022-12-04T11:45:54.586Z,632.00
2022-12-04T11:46:54.771Z,624.00
2022-12-04T11:47:54.534Z,640.00
2022-12-04T11:48:54.505Z,652.00
2022-12-04T11:49:54.495Z,632.00
2022-12-04T11:50:54.455Z,652.00
2022-12-04T11:51:54.452Z,676.00
2022-12-04T11:52:54.412Z,676.00
2022-12-04T11:53:54.389Z,656.00
2022-12-04T11:54:54.358Z,640.00
2022-12-04T11:55:54.330Z,640.00
2022-12-04T11:56:54.418Z,644.00
2022-12-04T11:57:54.285Z,628.00
2022-12-04T11:58:54.253Z,616.00
2022-12-04T11:59:54.549Z,584.00
2022-12-04T12:00:54.203Z,612.00
2022-12-04T12:01:58.230Z,580.00
2022-12-04T12:02:54.442Z,564.00
2022-12-04T12:03:54.133Z,564.00
2022-12-04T12:04:54.106Z,572.00
2022-12-04T12:05:54.074Z,544.00
2022-12-04T12:06:54.053Z,532.00
2022-12-04T12:08:00.593Z,496.00
2022-12-04T12:08:54.009Z,536.00
2022-12-04T12:09:54.331Z,528.00
2022-12-04T12:10:53.965Z,516.00
2022-12-04T12:11:53.986Z,468.00
2022-12-04T12:12:53.900Z,456.00
2022-12-04T12:13:53.879Z,460.00
2022-12-04T12:14:54.278Z,472.00
2022-12-04T12:15:53.823Z,468.00
2022-12-04T12:17:53.785Z,440.00
2022-12-04T12:18:53.754Z,456.00
2022-12-04T12:19:53.971Z,476.00
2022-12-04T12:20:53.711Z,500.00
2022-12-04T12:21:53.671Z,496.00
2022-12-04T12:22:53.644Z,532.00
2022-12-04T12:23:53.657Z,528.00
2022-12-04T12:24:53.719Z,536.00
2022-12-04T12:25:53.572Z,516.00
2022-12-04T12:26:53.545Z,512.00
2022-12-04T12:27:53.516Z,496.00
2022-12-04T12:28:53.511Z,492.00
2022-12-04T12:29:53.715Z,504.00
2022-12-04T12:30:53.438Z,540.00
2022-12-04T12:31:53.484Z,548.00
2022-12-04T12:32:53.396Z,556.00
2022-12-04T12:33:53.365Z,540.00
2022-12-04T12:34:53.333Z,528.00
2022-12-04T12:35:53.307Z,556.00
2022-12-04T12:36:57.813Z,548.00
2022-12-04T12:37:53.257Z,556.00
2022-12-04T12:38:53.235Z,560.00
2022-12-04T12:39:53.282Z,584.00
2022-12-04T12:40:53.200Z,588.00
2022-12-04T12:41:53.156Z,560.00
2022-12-04T12:42:58.000Z,556.00
2022-12-04T12:43:53.108Z,588.00
2022-12-04T12:44:53.084Z,576.00
2022-12-04T12:45:53.100Z,580.00
2022-12-04T12:46:53.090Z,548.00
2022-12-04T12:47:53.008Z,556.00
2022-12-04T12:48:58.130Z,532.00
2022-12-04T12:49:53.005Z,436.00
2022-12-04T12:51:08.899Z,420.00
2022-12-04T12:51:52.900Z,448.00
2022-12-04T12:52:52.882Z,432.00
2022-12-04T12:53:52.853Z,404.00
2022-12-04T12:54:52.831Z,412.00
2022-12-04T12:55:52.826Z,448.00
2022-12-04T12:56:52.775Z,452.00
2022-12-04T12:57:52.761Z,404.00
2022-12-04T12:58:52.730Z,408.00
2022-12-04T12:59:52.720Z,388.00
2022-12-04T13:00:52.733Z,360.00